Time;durP1;ratioP1;P1;durP2;ratioP2;P2;SDS_P1;SDS_P2;PMS_P1;PMS_P2;Temp;Humidity;BMP_temperature;BMP_pressure;BME280_temperature;BME280_humidity;BME280_pressure;Samples;Min_cycle;Max_cycle;Signal;HPM_P1;HPM_P2
2022/04/12 00:01:09;;;;;;;4.32;2.33;;;12.90;73.70;;;;;;4127372;28;20084;-63
2022/04/12 00:03:10;;;;;;;4.82;2.97;;;12.90;74.90;;;;;;4128023;28;20181;-63
2022/04/12 00:05:11;;;;;;;4.30;2.75;;;12.90;73.90;;;;;;4127967;28;20041;-64
2022/04/12 00:07:14;;;;;;;4.55;2.75;;;12.90;73.10;;;;;;4128878;28;20049;-63
2022/04/12 00:09:14;;;;;;;6.00;2.80;;;12.90;73.80;;;;;;4128236;28;20097;-63
2022/04/12 00:11:15;;;;;;;4.57;2.70;;;12.90;73.40;;;;;;4127834;28;20034;-63
2022/04/12 00:13:18;;;;;;;4.43;3.00;;;12.90;73.80;;;;;;4128631;28;20035;-63
2022/04/12 00:15:18;;;;;;;6.75;3.08;;;12.90;72.70;;;;;;4128302;28;20035;-63
2022/04/12 00:19:38;;;;;;;6.03;2.88;;;12.90;75.40;;;;;;4126404;28;20399;-63
2022/04/12 00:21:39;;;;;;;4.35;2.85;;;12.80;74.60;;;;;;4127862;28;20126;-63
2022/04/12 00:23:40;;;;;;;6.60;3.17;;;12.80;74.40;;;;;;4128068;28;20375;-63
2022/04/12 00:25:44;;;;;;;7.60;3.25;;;12.70;73.00;;;;;;4125298;28;20043;-63
2022/04/12 00:27:44;;;;;;;4.70;2.83;;;12.70;73.90;;;;;;4127494;28;20093;-63
2022/04/12 00:29:45;;;;;;;5.40;3.00;;;12.70;74.40;;;;;;4128512;28;20493;-63
2022/04/12 00:31:45;;;;;;;4.30;2.53;;;12.70;73.90;;;;;;4127529;28;20022;-64
2022/04/12 00:33:46;;;;;;;4.28;2.80;;;12.70;76.20;;;;;;4128505;28;20069;-63
2022/04/12 00:35:47;;;;;;;4.88;2.78;;;12.70;75.20;;;;;;4127689;28;20066;-63
2022/04/12 00:37:50;;;;;;;5.30;3.03;;;12.70;74.50;;;;;;4128054;28;20034;-63
2022/04/12 00:39:50;;;;;;;5.70;2.85;;;12.70;76.00;;;;;;4127958;28;20038;-63
2022/04/12 00:41:51;;;;;;;5.03;2.83;;;12.70;75.00;;;;;;4126189;28;20180;-63
2022/04/12 00:43:51;;;;;;;8.20;3.17;;;12.60;75.40;;;;;;4128156;28;20030;-63
2022/04/12 00:45:52;;;;;;;7.55;3.80;;;12.60;73.80;;;;;;4125488;28;20054;-63
2022/04/12 00:47:53;;;;;;;5.20;2.92;;;12.50;73.20;;;;;;4127529;28;20490;-63
2022/04/12 00:49:53;;;;;;;5.95;3.20;;;12.60;76.10;;;;;;4124558;28;20121;-63
2022/04/12 00:51:55;;;;;;;5.30;3.13;;;12.60;76.00;;;;;;4127311;28;20047;-63
2022/04/12 00:53:56;;;;;;;7.20;3.45;;;12.60;79.20;;;;;;4129757;28;20033;-64
2022/04/12 00:55:58;;;;;;;7.38;3.70;;;12.50;76.00;;;;;;4127226;28;20532;-63
2022/04/12 00:57:58;;;;;;;8.32;3.47;;;12.50;76.60;;;;;;4128167;28;20034;-63
2022/04/12 01:00:00;;;;;;;5.80;3.50;;;12.50;76.60;;;;;;4128329;28;20445;-63
2022/04/12 01:02:07;;;;;;;5.80;3.15;;;12.50;76.60;;;;;;4128918;28;20375;-63
2022/04/12 01:04:08;;;;;;;4.68;3.15;;;12.50;77.10;;;;;;4130921;28;20045;-64
2022/04/12 01:06:09;;;;;;;6.32;3.42;;;12.50;79.10;;;;;;4128277;28;20031;-64
2022/04/12 01:08:09;;;;;;;7.05;3.70;;;12.50;79.20;;;;;;4137118;28;20433;-64
2022/04/12 01:10:10;;;;;;;6.22;3.53;;;12.50;79.30;;;;;;4124366;28;20042;-65
2022/04/12 01:12:11;;;;;;;5.82;3.25;;;12.50;78.00;;;;;;4126998;28;20030;-64
2022/04/12 01:14:12;;;;;;;6.38;3.20;;;12.50;78.50;;;;;;4127662;28;20034;-64
2022/04/12 01:16:12;;;;;;;5.50;3.25;;;12.50;77.50;;;;;;4128826;28;20038;-63
2022/04/12 01:18:13;;;;;;;5.43;3.22;;;12.40;75.70;;;;;;4128280;28;20058;-63
2022/04/12 01:20:16;;;;;;;6.50;3.50;;;12.50;76.40;;;;;;4126251;28;20402;-64
2022/04/12 01:22:24;;;;;;;5.28;3.10;;;12.50;78.20;;;;;;4128039;28;20513;-64
2022/04/12 01:24:25;;;;;;;7.03;3.60;;;12.50;77.00;;;;;;4126970;28;20552;-63
2022/04/12 01:26:26;;;;;;;4.78;2.97;;;12.50;77.10;;;;;;4127015;28;20042;-63
2022/04/12 01:28:26;;;;;;;5.22;3.20;;;12.50;77.20;;;;;;4125384;28;20038;-64
2022/04/12 01:30:27;;;;;;;6.00;3.33;;;12.40;75.90;;;;;;4126133;28;20038;-64
2022/04/12 01:32:28;;;;;;;6.72;3.97;;;12.20;76.40;;;;;;4127171;28;20037;-63
2022/04/12 01:34:28;;;;;;;6.10;3.20;;;12.20;76.90;;;;;;4127327;28;20127;-63
2022/04/12 01:36:29;;;;;;;5.00;3.28;;;12.10;77.40;;;;;;4126756;28;20042;-63
2022/04/12 01:38:30;;;;;;;6.80;3.65;;;11.90;78.00;;;;;;4127473;28;20033;-63
2022/04/12 01:40:31;;;;;;;6.10;3.20;;;11.70;78.40;;;;;;4126224;28;20046;-63
2022/04/12 01:42:31;;;;;;;4.90;3.08;;;11.70;80.30;;;;;;4123990;28;20054;-63
2022/04/12 01:44:32;;;;;;;7.70;3.08;;;11.60;78.90;;;;;;4141202;28;20046;-63
2022/04/12 01:46:33;;;;;;;9.07;3.55;;;11.60;79.70;;;;;;4126849;28;20122;-63
2022/04/12 01:48:33;;;;;;;8.75;3.53;;;11.60;80.20;;;;;;4126087;28;20030;-63
2022/04/12 01:50:34;;;;;;;5.63;3.20;;;11.60;80.10;;;;;;4124614;28;20030;-63
2022/04/12 01:52:35;;;;;;;5.95;3.35;;;11.50;79.70;;;;;;4134938;28;20578;-63
2022/04/12 01:54:36;;;;;;;7.05;3.75;;;11.40;80.60;;;;;;4128048;28;20031;-63
2022/04/12 01:56:36;;;;;;;5.93;3.30;;;11.50;81.80;;;;;;4124428;28;20117;-63
2022/04/12 01:58:38;;;;;;;6.07;3.50;;;11.50;81.30;;;;;;4117104;28;20038;-64
2022/04/12 02:00:38;;;;;;;5.82;3.53;;;11.50;82.50;;;;;;4124961;28;20050;-63
2022/04/12 02:02:39;;;;;;;4.80;2.88;;;11.50;81.30;;;;;;4126927;28;20033;-63
2022/04/12 02:04:40;;;;;;;6.18;3.70;;;11.60;82.20;;;;;;4127407;28;20129;-63
2022/04/12 02:06:40;;;;;;;6.20;3.60;;;11.60;80.30;;;;;;4126964;28;20034;-63
2022/04/12 02:08:41;;;;;;;5.85;3.45;;;11.60;81.80;;;;;;4127395;28;20117;-63
2022/04/12 02:10:41;;;;;;;5.90;3.20;;;11.70;83.50;;;;;;4126947;28;20390;-63
2022/04/12 02:12:42;;;;;;;5.97;3.53;;;11.70;81.00;;;;;;4126946;28;20041;-63
2022/04/12 02:14:43;;;;;;;8.10;3.90;;;11.70;80.50;;;;;;4127392;28;20494;-63
2022/04/12 02:16:43;;;;;;;7.05;3.95;;;11.80;81.20;;;;;;4129615;28;20157;-63
2022/04/12 02:18:44;;;;;;;6.32;3.70;;;11.80;81.50;;;;;;4130179;28;20035;-63
2022/04/12 02:20:44;;;;;;;5.25;3.50;;;11.80;81.80;;;;;;4129381;28;20040;-63
2022/04/12 02:22:45;;;;;;;8.02;3.65;;;11.80;81.60;;;;;;4130415;28;20030;-63
2022/04/12 02:24:46;;;;;;;7.57;3.78;;;11.80;81.50;;;;;;4130385;28;20784;-63
2022/04/12 02:26:46;;;;;;;6.18;3.45;;;11.80;82.10;;;;;;4127960;28;20023;-63
2022/04/12 02:28:47;;;;;;;5.57;3.33;;;11.80;82.50;;;;;;4129872;28;20547;-63
2022/04/12 02:30:47;;;;;;;5.68;3.17;;;11.80;83.10;;;;;;4129774;28;20490;-63
2022/04/12 02:32:48;;;;;;;6.53;3.60;;;11.80;84.50;;;;;;4129961;28;20377;-63
2022/04/12 02:34:49;;;;;;;5.75;3.50;;;11.80;82.70;;;;;;4129960;28;20026;-63
2022/04/12 02:36:49;;;;;;;8.05;3.88;;;11.80;83.60;;;;;;4129292;28;20141;-63
2022/04/12 02:38:50;;;;;;;6.45;3.50;;;11.80;82.70;;;;;;4130233;28;20402;-63
2022/04/12 02:40:50;;;;;;;6.53;3.60;;;11.80;83.50;;;;;;4131136;28;20027;-63
2022/04/12 02:42:51;;;;;;;6.65;3.53;;;11.80;83.70;;;;;;4129435;28;20120;-63
2022/04/12 02:44:51;;;;;;;6.85;3.45;;;11.70;82.10;;;;;;4130251;28;20477;-63
2022/04/12 02:46:52;;;;;;;9.40;4.00;;;11.70;82.40;;;;;;4129374;28;20049;-63
2022/04/12 02:48:53;;;;;;;6.53;3.47;;;11.60;83.00;;;;;;4129890;28;20034;-63
2022/04/12 02:50:54;;;;;;;7.53;3.75;;;11.60;83.70;;;;;;4128481;28;20573;-63
2022/04/12 02:52:54;;;;;;;6.03;3.35;;;11.60;83.60;;;;;;4128056;28;20034;-63
2022/04/12 02:54:55;;;;;;;5.00;3.13;;;11.60;84.20;;;;;;4129843;28;20035;-63
2022/04/12 02:56:55;;;;;;;4.25;2.92;;;11.60;85.40;;;;;;4129333;28;20038;-63
2022/04/12 02:58:56;;;;;;;6.10;3.03;;;11.60;85.00;;;;;;4129513;28;20478;-63
2022/04/12 03:00:56;;;;;;;5.60;3.60;;;11.60;86.10;;;;;;4128823;28;20045;-63
2022/04/12 03:02:57;;;;;;;5.72;3.15;;;11.60;85.70;;;;;;4129745;28;20046;-62
2022/04/12 03:04:57;;;;;;;5.68;3.20;;;11.60;85.30;;;;;;4129647;28;20117;-64
2022/04/12 03:06:59;;;;;;;7.30;3.65;;;11.60;86.40;;;;;;4128966;28;20085;-63
2022/04/12 03:08:59;;;;;;;6.68;3.70;;;11.60;86.60;;;;;;4129561;28;20030;-63
2022/04/12 03:11:00;;;;;;;6.78;3.85;;;11.60;88.20;;;;;;4129349;28;20043;-63
2022/04/12 03:13:00;;;;;;;8.10;3.53;;;11.60;86.40;;;;;;4129596;28;20037;-63
2022/04/12 03:15:02;;;;;;;7.35;3.88;;;11.70;86.50;;;;;;4128573;28;20030;-63
2022/04/12 03:17:03;;;;;;;4.97;3.20;;;11.70;87.20;;;;;;4128413;28;20034;-63
2022/04/12 03:19:04;;;;;;;5.35;3.30;;;11.70;88.90;;;;;;4128142;28;20038;-63
2022/04/12 03:21:05;;;;;;;5.22;3.67;;;11.70;88.80;;;;;;4128085;28;20177;-63
2022/04/12 03:23:06;;;;;;;6.38;4.20;;;11.80;87.80;;;;;;4128435;28;20085;-63
2022/04/12 03:25:08;;;;;;;5.35;3.40;;;11.80;88.30;;;;;;4128635;28;20023;-64
2022/04/12 03:27:09;;;;;;;7.13;3.80;;;11.80;86.20;;;;;;4128182;28;20468;-63
2022/04/12 03:29:10;;;;;;;6.43;3.50;;;11.80;88.00;;;;;;4128685;28;20026;-63
2022/04/12 03:31:10;;;;;;;8.77;3.90;;;11.80;88.90;;;;;;4127928;28;20039;-63
2022/04/12 03:33:11;;;;;;;5.57;3.78;;;11.80;88.10;;;;;;4129158;28;20081;-63
2022/04/12 03:35:11;;;;;;;5.28;3.42;;;11.80;88.80;;;;;;4126619;28;20027;-64
2022/04/12 03:37:13;;;;;;;6.03;3.55;;;11.80;87.70;;;;;;4128379;28;20030;-63
2022/04/12 03:39:21;;;;;;;5.88;3.22;;;11.80;87.80;;;;;;4128318;28;20033;-63
2022/04/12 03:41:23;;;;;;;5.88;3.60;;;11.80;87.70;;;;;;4127979;28;20027;-63
2022/04/12 03:43:23;;;;;;;6.78;3.40;;;11.80;87.80;;;;;;4128152;28;20129;-63
2022/04/12 03:45:24;;;;;;;4.97;3.38;;;11.80;87.20;;;;;;4131965;28;20785;-65
2022/04/12 03:47:27;;;;;;;5.95;3.75;;;11.80;87.80;;;;;;4128777;28;20046;-63
2022/04/12 03:49:28;;;;;;;5.10;3.55;;;11.80;85.60;;;;;;4140474;28;20039;-64
2022/04/12 03:51:31;;;;;;;7.03;3.92;;;11.80;85.90;;;;;;4127540;28;20077;-63
2022/04/12 03:53:32;;;;;;;6.13;3.85;;;11.80;85.10;;;;;;4129465;28;20569;-63
2022/04/12 03:55:35;;;;;;;5.18;3.63;;;11.80;85.40;;;;;;4128870;28;20030;-63
2022/04/12 03:57:35;;;;;;;5.43;3.45;;;11.60;85.50;;;;;;4139903;28;20478;-63
2022/04/12 03:59:36;;;;;;;5.55;3.85;;;11.70;86.60;;;;;;4134894;28;20040;-63
2022/04/12 04:01:37;;;;;;;6.20;3.83;;;11.70;87.50;;;;;;4131699;28;20132;-66
2022/04/12 04:03:38;;;;;;;5.60;3.60;;;11.60;88.20;;;;;;4130476;28;20050;-63
2022/04/12 04:05:38;;;;;;;6.35;3.58;;;11.60;88.60;;;;;;4127574;28;20034;-63
2022/04/12 04:07:39;;;;;;;6.38;3.75;;;11.50;89.20;;;;;;4135608;28;20022;-63
2022/04/12 04:09:39;;;;;;;4.82;3.50;;;11.50;89.70;;;;;;4128066;28;20050;-64
2022/04/12 04:11:40;;;;;;;6.95;3.58;;;11.50;89.80;;;;;;4127969;28;20031;-63
2022/04/12 04:13:41;;;;;;;7.95;3.55;;;11.50;89.30;;;;;;4126818;28;20026;-63
2022/04/12 04:15:41;;;;;;;5.32;3.05;;;11.40;88.90;;;;;;4150331;28;20023;-63
2022/04/12 04:17:45;;;;;;;7.65;3.58;;;11.40;89.40;;;;;;4127157;28;20077;-62
2022/04/12 04:19:46;;;;;;;5.88;3.30;;;11.20;90.30;;;;;;4128068;28;20037;-63
2022/04/12 04:21:46;;;;;;;7.07;3.78;;;11.20;90.30;;;;;;4127668;28;20026;-65
2022/04/12 04:23:47;;;;;;;4.22;3.17;;;11.20;91.10;;;;;;4128513;28;20500;-64
2022/04/12 04:25:48;;;;;;;4.55;3.15;;;11.10;90.70;;;;;;4127877;28;20038;-64
2022/04/12 04:27:49;;;;;;;7.82;4.28;;;11.10;91.10;;;;;;4128254;28;20031;-64
2022/04/12 04:29:49;;;;;;;7.32;3.85;;;11.10;91.30;;;;;;4128281;28;20055;-64
2022/04/12 04:31:51;;;;;;;7.65;4.03;;;11.10;91.80;;;;;;4128024;28;20042;-64
2022/04/12 04:33:51;;;;;;;5.68;3.45;;;11.10;91.90;;;;;;4126185;28;20038;-64
2022/04/12 04:35:52;;;;;;;10.02;4.53;;;11.10;91.90;;;;;;4127733;28;20027;-64
2022/04/12 04:37:53;;;;;;;5.45;3.63;;;11.10;92.40;;;;;;4128378;28;20054;-64
2022/04/12 04:39:54;;;;;;;6.25;4.18;;;11.20;92.90;;;;;;4127526;28;20042;-64
2022/04/12 04:41:55;;;;;;;5.85;3.83;;;11.20;92.00;;;;;;4126977;28;20103;-64
2022/04/12 04:43:55;;;;;;;5.50;3.75;;;11.20;91.30;;;;;;4127899;28;20045;-64
2022/04/12 04:45:56;;;;;;;6.97;3.90;;;11.30;92.40;;;;;;4123353;28;20104;-64
2022/04/12 04:47:58;;;;;;;6.20;3.70;;;11.30;91.40;;;;;;4126442;28;20041;-64
2022/04/12 04:49:59;;;;;;;5.47;3.30;;;11.30;91.50;;;;;;4127313;28;20449;-65
2022/04/12 04:52:00;;;;;;;5.80;3.42;;;11.30;91.60;;;;;;4126712;28;20027;-64
2022/04/12 04:54:00;;;;;;;6.85;3.75;;;11.30;91.30;;;;;;4127694;28;20034;-64
2022/04/12 04:56:01;;;;;;;6.10;3.60;;;11.30;91.50;;;;;;4127027;28;20076;-64
2022/04/12 04:58:02;;;;;;;8.10;4.25;;;11.30;91.50;;;;;;4127375;28;20065;-63
2022/04/12 05:00:05;;;;;;;5.80;3.30;;;11.30;91.40;;;;;;4130945;28;20041;-64
2022/04/12 05:02:06;;;;;;;6.05;3.53;;;11.30;91.90;;;;;;4132197;28;20042;-63
2022/04/12 05:04:06;;;;;;;6.63;3.45;;;11.30;90.90;;;;;;4133327;28;20118;-64
2022/04/12 05:06:07;;;;;;;4.88;3.08;;;11.30;90.10;;;;;;4123388;28;20505;-63
2022/04/12 05:08:07;;;;;;;6.43;3.90;;;11.20;90.90;;;;;;4124312;28;20159;-64
2022/04/12 05:10:11;;;;;;;5.70;3.60;;;11.10;91.00;;;;;;4123653;28;20073;-64
2022/04/12 05:12:12;;;;;;;5.45;3.80;;;11.10;91.40;;;;;;4123371;28;20026;-64
2022/04/12 05:14:13;;;;;;;6.82;4.28;;;10.90;91.60;;;;;;4124262;28;20113;-64
2022/04/12 05:16:14;;;;;;;7.38;4.38;;;10.80;91.90;;;;;;4123453;28;20065;-63
2022/04/12 05:18:14;;;;;;;9.20;4.47;;;10.70;92.20;;;;;;4123159;28;20506;-64
2022/04/12 05:20:15;;;;;;;8.65;4.38;;;10.40;92.90;;;;;;4123318;28;20467;-64
2022/04/12 05:22:15;;;;;;;13.98;4.22;;;10.00;93.20;;;;;;4120565;28;20506;-64
2022/04/12 05:24:16;;;;;;;7.43;3.97;;;10.00;93.70;;;;;;4124234;28;20070;-64
2022/04/12 05:26:16;;;;;;;7.95;4.10;;;10.10;94.30;;;;;;4123317;28;20043;-64
2022/04/12 05:28:17;;;;;;;5.40;3.50;;;10.20;95.00;;;;;;4123891;28;20378;-64
2022/04/12 05:30:18;;;;;;;7.38;4.00;;;10.30;95.00;;;;;;4123159;28;20046;-64
2022/04/12 05:32:19;;;;;;;5.72;3.60;;;10.30;94.80;;;;;;4124305;28;20125;-64
2022/04/12 05:34:20;;;;;;;9.80;3.70;;;10.40;95.20;;;;;;4124079;28;20061;-64
2022/04/12 05:36:20;;;;;;;6.60;3.50;;;10.50;94.70;;;;;;4122981;28;20049;-64
2022/04/12 05:38:21;;;;;;;6.75;4.13;;;10.60;95.70;;;;;;4123830;28;20058;-64
2022/04/12 05:40:22;;;;;;;8.82;3.65;;;10.60;94.30;;;;;;4123636;28;20137;-64
2022/04/12 05:42:24;;;;;;;6.10;3.42;;;10.70;93.80;;;;;;4124029;28;20120;-64
2022/04/12 05:44:24;;;;;;;8.07;3.80;;;10.70;94.10;;;;;;4123883;28;20077;-63
2022/04/12 05:46:25;;;;;;;5.85;3.50;;;10.80;94.00;;;;;;4123368;28;20034;-64
2022/04/12 05:48:25;;;;;;;6.60;3.92;;;10.90;94.00;;;;;;4124120;28;20146;-64
2022/04/12 05:50:27;;;;;;;6.70;3.70;;;10.90;94.10;;;;;;4123653;28;20046;-64
2022/04/12 05:52:28;;;;;;;7.07;3.67;;;11.00;93.60;;;;;;4127057;28;20034;-64
2022/04/12 05:54:29;;;;;;;6.57;3.53;;;11.10;93.80;;;;;;4125862;28;20097;-64
2022/04/12 05:56:29;;;;;;;6.68;3.47;;;11.10;93.10;;;;;;4126084;28;20046;-65
2022/04/12 05:58:32;;;;;;;7.25;3.80;;;11.20;93.90;;;;;;4127346;28;20117;-64
2022/04/12 06:00:34;;;;;;;7.70;3.75;;;11.20;93.50;;;;;;4126298;28;20460;-64
2022/04/12 06:02:35;;;;;;;5.32;3.20;;;11.20;92.60;;;;;;4127397;28;20046;-64
2022/04/12 06:04:36;;;;;;;5.22;3.22;;;11.30;92.60;;;;;;4127198;28;20041;-64
2022/04/12 06:06:38;;;;;;;5.25;3.17;;;11.30;92.30;;;;;;4125722;28;20570;-64
2022/04/12 06:08:39;;;;;;;5.07;3.40;;;11.40;93.00;;;;;;4126534;28;20042;-65
2022/04/12 06:10:42;;;;;;;6.55;3.80;;;11.40;92.70;;;;;;4125341;28;20556;-64
2022/04/12 06:12:43;;;;;;;6.25;3.50;;;11.40;92.90;;;;;;4127369;28;20046;-64
2022/04/12 06:14:43;;;;;;;6.35;3.60;;;11.50;92.90;;;;;;4126555;28;20026;-64
2022/04/12 06:16:44;;;;;;;9.52;4.07;;;11.60;93.60;;;;;;4126005;28;20034;-65
2022/04/12 06:18:44;;;;;;;6.78;4.03;;;11.60;92.60;;;;;;4127694;28;20045;-64
2022/04/12 06:20:45;;;;;;;6.47;3.97;;;11.70;93.70;;;;;;4126036;28;20062;-64
2022/04/12 06:22:46;;;;;;;8.18;4.30;;;11.70;92.60;;;;;;4127221;28;20035;-64
2022/04/12 06:24:46;;;;;;;8.23;3.85;;;11.80;92.60;;;;;;4126825;28;20734;-64
2022/04/12 06:26:47;;;;;;;5.90;3.75;;;11.90;92.50;;;;;;4126991;28;20401;-64
2022/04/12 06:28:50;;;;;;;7.70;3.92;;;12.00;92.50;;;;;;4126428;28;20050;-64
2022/04/12 06:30:52;;;;;;;9.98;3.72;;;12.10;92.20;;;;;;4126376;28;20042;-64
2022/04/12 06:32:54;;;;;;;9.02;3.42;;;12.20;92.30;;;;;;4125298;28;20038;-65
2022/04/12 06:34:54;;;;;;;6.60;3.22;;;12.40;92.40;;;;;;4127052;28;20081;-64
2022/04/12 06:36:55;;;;;;;9.95;3.67;;;12.60;91.70;;;;;;4124827;28;20039;-64
2022/04/12 06:38:57;;;;;;;7.22;3.78;;;12.80;90.90;;;;;;4126665;28;20046;-64
2022/04/12 06:40:57;;;;;;;8.35;4.00;;;13.00;91.10;;;;;;4120711;28;20038;-64
2022/04/12 06:42:58;;;;;;;7.32;3.60;;;13.30;90.80;;;;;;4125898;28;20048;-64
2022/04/12 06:44:58;;;;;;;9.90;4.22;;;13.60;90.00;;;;;;4126100;28;20046;-63
2022/04/12 06:46:59;;;;;;;6.70;3.65;;;14.00;87.20;;;;;;4122925;28;20138;-64
2022/04/12 06:48:59;;;;;;;7.28;3.80;;;14.20;86.10;;;;;;4119001;28;20445;-65
2022/04/12 06:51:00;;;;;;;5.60;3.42;;;14.50;84.80;;;;;;4134084;28;20117;-64
2022/04/12 06:53:03;;;;;;;6.28;3.92;;;14.80;83.60;;;;;;4126315;28;20038;-64
2022/04/12 06:55:05;;;;;;;6.07;3.42;;;14.90;83.80;;;;;;4126154;28;20968;-65
2022/04/12 06:57:06;;;;;;;6.35;3.92;;;14.90;81.80;;;;;;4126243;28;20405;-65
2022/04/12 06:59:06;;;;;;;9.00;3.70;;;14.90;81.60;;;;;;4126441;28;20038;-64
2022/04/12 07:01:07;;;;;;;9.68;4.13;;;15.00;81.70;;;;;;4126587;28;20494;-64
2022/04/12 07:03:07;;;;;;;6.03;3.65;;;15.00;81.30;;;;;;4125504;28;20046;-64
2022/04/12 07:05:09;;;;;;;6.25;3.88;;;15.10;81.90;;;;;;4125951;28;20093;-64
2022/04/12 07:07:09;;;;;;;6.55;3.85;;;15.40;81.30;;;;;;4126184;28;20314;-64
2022/04/12 07:09:17;;;;;;;6.72;3.83;;;15.60;80.80;;;;;;4126464;28;20041;-64
2022/04/12 07:11:17;;;;;;;8.25;3.85;;;15.80;79.70;;;;;;4123289;28;20046;-64
2022/04/12 07:13:19;;;;;;;5.10;3.65;;;15.90;79.10;;;;;;4125964;28;20482;-64
2022/04/12 07:15:20;;;;;;;5.70;3.83;;;16.00;77.00;;;;;;4125427;28;20034;-64
2022/04/12 07:17:21;;;;;;;7.20;3.40;;;16.20;76.90;;;;;;4125370;28;20072;-64
2022/04/12 07:19:22;;;;;;;6.75;3.40;;;16.30;77.10;;;;;;4125885;28;20042;-64
2022/04/12 07:21:22;;;;;;;5.57;3.53;;;16.50;76.00;;;;;;4125524;28;20172;-64
2022/04/12 07:23:23;;;;;;;6.22;3.47;;;16.70;75.80;;;;;;4125154;28;20046;-64
2022/04/12 07:25:23;;;;;;;10.98;4.00;;;16.80;74.40;;;;;;4124589;28;20045;-64
2022/04/12 07:27:24;;;;;;;12.40;4.30;;;16.70;73.60;;;;;;4126028;28;20062;-64
2022/04/12 07:29:25;;;;;;;7.32;4.10;;;16.60;73.00;;;;;;4125943;28;20039;-64
2022/04/12 07:31:28;;;;;;;7.47;3.85;;;16.60;73.50;;;;;;4125423;28;20050;-64
2022/04/12 07:33:29;;;;;;;6.90;3.85;;;16.70;73.50;;;;;;4125499;28;20035;-64
2022/04/12 07:35:30;;;;;;;5.13;3.25;;;16.80;73.90;;;;;;4124572;28;20085;-64
2022/04/12 07:37:35;;;;;;;6.65;3.42;;;16.70;73.80;;;;;;4123271;28;20498;-64
2022/04/12 07:39:36;;;;;;;6.53;3.60;;;16.90;75.30;;;;;;4125749;28;20130;-64
2022/04/12 07:41:37;;;;;;;7.18;3.50;;;16.90;72.60;;;;;;4124676;28;20046;-64
2022/04/12 07:43:38;;;;;;;7.97;4.40;;;16.70;72.50;;;;;;4125171;28;20130;-64
2022/04/12 07:45:38;;;;;;;4.88;2.95;;;16.80;73.30;;;;;;4124611;28;20146;-63
2022/04/12 07:47:39;;;;;;;6.60;3.28;;;16.90;74.90;;;;;;4125686;28;20069;-64
2022/04/12 07:49:39;;;;;;;5.22;3.45;;;16.80;73.20;;;;;;4125212;28;20097;-64
2022/04/12 07:51:41;;;;;;;7.63;4.00;;;16.90;73.10;;;;;;4124564;28;20038;-64
2022/04/12 07:53:42;;;;;;;6.55;3.35;;;17.10;74.10;;;;;;4125201;28;20042;-64
2022/04/12 07:55:42;;;;;;;6.65;3.47;;;17.00;73.60;;;;;;4125053;28;20394;-64
2022/04/12 07:57:43;;;;;;;6.90;3.40;;;17.00;72.70;;;;;;4124136;28;20038;-64
2022/04/12 07:59:44;;;;;;;6.88;3.47;;;17.10;72.80;;;;;;4125448;28;20387;-64
2022/04/12 08:01:44;;;;;;;5.68;3.28;;;17.10;72.20;;;;;;4124527;28;20034;-64
2022/04/12 08:03:45;;;;;;;8.40;2.97;;;17.20;72.20;;;;;;4124939;28;20105;-64
2022/04/12 08:05:46;;;;;;;6.68;3.38;;;17.20;71.70;;;;;;4124529;28;20038;-64
2022/04/12 08:07:49;;;;;;;5.00;3.33;;;17.30;72.80;;;;;;4124265;28;20038;-64
2022/04/12 08:09:50;;;;;;;6.57;3.25;;;17.30;71.20;;;;;;4124798;28;20026;-65
2022/04/12 08:11:51;;;;;;;6.70;3.30;;;17.40;71.50;;;;;;4124534;28;20046;-64
2022/04/12 08:13:51;;;;;;;4.80;3.20;;;17.40;72.00;;;;;;4125096;28;20043;-63
2022/04/12 08:15:52;;;;;;;5.03;3.15;;;17.40;72.50;;;;;;4127516;28;20018;-63
2022/04/12 08:17:52;;;;;;;9.38;3.20;;;17.50;72.60;;;;;;4128421;28;20045;-64
2022/04/12 08:19:53;;;;;;;5.45;3.08;;;17.50;72.40;;;;;;4126688;28;20022;-64
2022/04/12 08:21:54;;;;;;;8.50;3.60;;;17.60;71.10;;;;;;4124720;28;20097;-64
2022/04/12 08:23:56;;;;;;;10.57;3.15;;;17.70;71.10;;;;;;4124488;28;20034;-64
2022/04/12 08:25:57;;;;;;;6.63;3.35;;;17.60;71.30;;;;;;4124470;28;20117;-63
2022/04/12 08:27:57;;;;;;;6.13;2.83;;;17.60;71.30;;;;;;4126184;28;20042;-64
2022/04/12 08:29:58;;;;;;;6.13;3.35;;;17.60;71.90;;;;;;4127632;28;20039;-63
2022/04/12 08:31:58;;;;;;;7.78;3.00;;;17.70;73.60;;;;;;4127726;28;20064;-63
2022/04/12 08:33:59;;;;;;;6.88;3.42;;;17.80;73.30;;;;;;4127501;28;20114;-63
2022/04/12 08:36:00;;;;;;;10.38;3.58;;;17.90;71.10;;;;;;4123564;28;20038;-64
2022/04/12 08:38:01;;;;;;;10.50;3.60;;;17.90;71.00;;;;;;4124789;28;20031;-63
2022/04/12 08:40:03;;;;;;;4.97;3.08;;;17.90;70.70;;;;;;4123959;28;20110;-64
2022/04/12 08:42:04;;;;;;;6.93;3.28;;;17.80;69.90;;;;;;4123424;28;20050;-64
2022/04/12 08:44:06;;;;;;;6.07;3.80;;;17.90;70.40;;;;;;4124689;28;20053;-64
2022/04/12 08:46:08;;;;;;;7.40;3.17;;;17.80;69.30;;;;;;4124977;28;20125;-63
2022/04/12 08:48:11;;;;;;;5.35;3.00;;;17.80;70.80;;;;;;4124733;28;20080;-64
2022/04/12 08:50:11;;;;;;;;;;;17.80;70.40;;;;;;4125037;28;20034;-65
2022/04/12 08:52:13;;;;;;;6.38;3.70;;;17.80;69.90;;;;;;4125159;28;19941;-64
2022/04/12 08:54:15;;;;;;;12.63;3.27;;;17.80;70.40;;;;;;4121911;28;20046;-64
2022/04/12 08:56:17;;;;;;;8.57;3.22;;;17.80;70.00;;;;;;4124030;28;20280;-63
2022/04/12 08:58:17;;;;;;;5.97;3.25;;;17.80;70.60;;;;;;4125109;28;20038;-64
2022/04/12 09:00:18;;;;;;;4.72;2.67;;;17.80;71.10;;;;;;4123396;28;20060;-63
2022/04/12 09:02:19;;;;;;;5.32;2.90;;;17.90;70.80;;;;;;4124606;28;20046;-63
2022/04/12 09:04:20;;;;;;;5.20;3.22;;;18.00;71.30;;;;;;4123815;28;20058;-64
2022/04/12 09:06:21;;;;;;;5.20;2.83;;;18.00;70.50;;;;;;4124215;28;20054;-64
2022/04/12 09:08:32;;;;;;;6.15;3.00;;;18.00;70.50;;;;;;4124814;28;20543;-63
2022/04/12 09:10:34;;;;;;;4.80;2.53;;;18.10;70.80;;;;;;4123928;28;20054;-64
2022/04/12 09:12:35;;;;;;;4.20;2.60;;;18.00;70.10;;;;;;4123495;28;20148;-63
2022/04/12 09:14:52;;;;;;;3.85;2.42;;;18.10;71.80;;;;;;4124471;28;20125;-63
2022/04/12 09:16:52;;;;;;;5.93;2.47;;;18.30;71.50;;;;;;4124733;28;20466;-63
2022/04/12 09:18:53;;;;;;;5.00;2.60;;;18.40;71.60;;;;;;4124333;28;20054;-63
2022/04/12 09:20:56;;;;;;;8.30;2.70;;;18.50;71.50;;;;;;4124332;28;20034;-63
2022/04/12 09:23:00;;;;;;;6.68;2.72;;;18.60;70.10;;;;;;4124545;28;20637;-63
2022/04/12 09:25:02;;;;;;;4.65;2.67;;;18.60;69.50;;;;;;4123092;28;20123;-63
2022/04/12 09:27:03;;;;;;;6.60;2.22;;;18.60;69.50;;;;;;4122940;28;20093;-65
2022/04/12 09:29:04;;;;;;;5.25;2.30;;;18.70;69.80;;;;;;4124362;28;20498;-64
2022/04/12 09:31:15;;;;;;;4.82;2.42;;;18.80;69.60;;;;;;4123073;28;20042;-64
2022/04/12 09:33:34;;;;;;;4.85;2.35;;;18.80;68.30;;;;;;4123692;28;20042;-64
2022/04/12 09:35:35;;;;;;;9.82;2.28;;;18.90;69.50;;;;;;4123298;28;20040;-63
2022/04/12 09:37:38;;;;;;;4.35;2.40;;;18.80;67.60;;;;;;4124561;28;20122;-64
2022/04/12 09:39:39;;;;;;;5.30;2.45;;;18.90;68.90;;;;;;4122805;28;20041;-64
2022/04/12 09:41:39;;;;;;;3.15;1.92;;;18.90;67.60;;;;;;4122370;28;20026;-63
2022/04/12 09:43:54;;;;;;;4.53;1.83;;;19.10;68.40;;;;;;4124549;28;20498;-63
2022/04/12 09:45:55;;;;;;;3.67;1.90;;;19.10;67.40;;;;;;4123227;28;20042;-63
2022/04/12 09:48:01;;;;;;;4.97;2.10;;;19.10;67.90;;;;;;4124124;28;20042;-63
2022/04/12 09:50:03;;;;;;;10.85;2.15;;;19.20;66.60;;;;;;4123894;28;20113;-65
2022/04/12 09:52:13;;;;;;;3.40;1.90;;;19.10;66.40;;;;;;4122604;28;20445;-64
2022/04/12 09:54:22;;;;;;;4.85;2.08;;;19.30;67.00;;;;;;4122937;28;20046;-64
2022/04/12 09:56:29;;;;;;;3.20;2.00;;;19.20;66.70;;;;;;4123594;28;20437;-63
2022/04/12 09:58:29;;;;;;;3.40;2.00;;;19.30;66.60;;;;;;4123939;28;20038;-63
2022/04/12 10:00:30;;;;;;;3.33;1.77;;;19.40;68.80;;;;;;4123226;28;20066;-63
2022/04/12 10:02:33;;;;;;;8.77;2.33;;;19.40;67.60;;;;;;4123369;28;20133;-63
2022/04/12 10:04:36;;;;;;;5.18;1.77;;;19.50;67.60;;;;;;4123513;28;20077;-64
2022/04/12 10:06:41;;;;;;;5.13;1.85;;;19.50;66.80;;;;;;4122624;28;20651;-64
2022/04/12 10:08:43;;;;;;;6.75;2.20;;;19.60;66.90;;;;;;4124702;28;20030;-64
2022/04/12 10:10:45;;;;;;;5.93;1.90;;;19.60;66.80;;;;;;4123040;28;20038;-64
2022/04/12 10:12:47;;;;;;;5.78;1.95;;;19.80;66.10;;;;;;4123944;28;20165;-64
2022/04/12 10:14:49;;;;;;;3.42;1.83;;;19.90;66.00;;;;;;4122345;28;20046;-64
2022/04/12 10:16:50;;;;;;;4.00;2.00;;;19.80;64.90;;;;;;4123499;28;20116;-64
2022/04/12 10:18:52;;;;;;;2.60;1.73;;;19.80;65.60;;;;;;4123482;28;20034;-64
2022/04/12 10:20:53;;;;;;;;;;;19.90;65.90;;;;;;4123299;28;20065;-64
2022/04/12 10:22:57;;;;;;;4.38;1.95;;;19.90;65.90;;;;;;4124046;28;19925;-63
2022/04/12 10:24:59;;;;;;;4.38;1.92;;;20.00;65.90;;;;;;4122762;28;20031;-64
2022/04/12 10:27:00;;;;;;;4.82;2.28;;;20.10;65.40;;;;;;4123212;28;20049;-64
2022/04/12 10:29:05;;;;;;;3.40;1.88;;;20.10;65.90;;;;;;4123044;28;20023;-64
2022/04/12 10:31:14;;;;;;;4.57;1.73;;;20.20;64.90;;;;;;4120996;28;20157;-64
2022/04/12 10:33:15;;;;;;;5.28;2.00;;;20.20;64.50;;;;;;4123929;28;20038;-64
2022/04/12 10:35:16;;;;;;;5.57;1.98;;;20.30;65.20;;;;;;4123216;28;20042;-65